Time;durP1;ratioP1;P1;durP2;ratioP2;P2;SDS_P1;SDS_P2;PMS_P1;PMS_P2;Temp;Humidity;BMP_temperature;BMP_pressure;BME280_temperature;BME280_humidity;BME280_pressure;Samples;Min_cycle;Max_cycle;Signal;HPM_P1;HPM_P2
2023/06/04 00:03:05;;;;;;;7.60;3.40;;;;;;;7.65;64.23;101373.69;104786;1270;97970;-78
2023/06/04 00:05:50;;;;;;;9.60;4.40;;;;;;;7.62;64.12;101373.32;104683;1279;98516;-78
2023/06/04 00:08:36;;;;;;;12.50;5.80;;;;;;;7.60;64.05;101368.20;104885;1269;101280;-79
2023/06/04 00:11:21;;;;;;;17.10;7.70;;;;;;;7.58;63.89;101369.24;104942;1269;100330;-78
2023/06/04 00:14:07;;;;;;;20.60;10.10;;;;;;;7.55;64.16;101365.11;104692;1279;98932;-79
2023/06/04 00:16:52;;;;;;;11.20;5.90;;;;;;;7.51;64.35;101367.14;104747;1267;98431;-78
2023/06/04 00:19:40;;;;;;;7.10;4.10;;;;;;;7.46;64.48;101371.15;104780;1267;100282;-77
2023/06/04 00:22:25;;;;;;;8.00;3.90;;;;;;;7.40;64.67;101370.48;104825;1267;103096;-80
2023/06/04 00:25:11;;;;;;;6.60;3.00;;;;;;;7.36;65.15;101368.01;104995;1269;100538;-78
2023/06/04 00:27:57;;;;;;;5.90;3.20;;;;;;;7.35;65.51;101369.61;104957;1270;97956;-77
2023/06/04 00:30:42;;;;;;;5.60;2.80;;;;;;;7.35;65.48;101370.14;105156;1267;98098;-79
2023/06/04 00:33:28;;;;;;;6.00;3.00;;;;;;;7.33;65.45;101368.76;104877;1267;98844;-79
2023/06/04 00:36:13;;;;;;;6.60;3.00;;;;;;;7.27;65.12;101368.38;105546;1267;102048;-79
2023/06/04 00:38:59;;;;;;;5.50;3.40;;;;;;;7.22;65.26;101368.48;104926;1267;101329;-79
2023/06/04 00:41:45;;;;;;;9.00;4.30;;;;;;;7.20;65.32;101370.31;104898;1270;99503;-79
2023/06/04 00:44:32;;;;;;;6.20;4.20;;;;;;;7.18;65.18;101372.52;105038;1270;97967;-80
2023/06/04 00:47:19;;;;;;;8.20;3.60;;;;;;;7.13;65.28;101372.85;104925;1270;99616;-77
2023/06/04 00:50:06;;;;;;;4.30;3.50;;;;;;;7.06;65.37;101373.69;104842;1273;102678;-78
2023/06/04 00:52:54;;;;;;;5.50;3.30;;;;;;;6.99;65.50;101372.39;105104;1270;100141;-79
2023/06/04 00:55:39;;;;;;;4.70;3.00;;;;;;;6.94;65.87;101373.65;104992;1270;98059;-79
2023/06/04 00:58:25;;;;;;;4.20;2.20;;;;;;;6.93;66.12;101367.41;105141;1267;98833;-80
2023/06/04 01:01:28;;;;;;;6.50;2.80;;;;;;;6.90;66.39;101365.73;105223;1270;98467;-80
2023/06/04 01:04:20;;;;;;;3.40;2.70;;;;;;;6.85;66.20;101363.73;105152;1267;101283;-79
2023/06/04 01:07:08;;;;;;;4.80;2.80;;;;;;;6.80;66.20;101362.76;104871;1270;99098;-79
2023/06/04 01:09:55;;;;;;;6.00;3.40;;;;;;;6.75;66.10;101360.79;105686;1266;99505;-77
2023/06/04 01:12:42;;;;;;;4.80;3.00;;;;;;;6.64;66.17;101364.27;104885;1267;97960;-79
2023/06/04 01:15:27;;;;;;;4.10;2.80;;;;;;;6.54;66.44;101365.96;104897;1270;98419;-79
2023/06/04 01:18:27;;;;;;;7.20;2.50;;;;;;;6.47;66.46;101367.70;105090;1269;102975;-79
2023/06/04 01:21:18;;;;;;;4.40;2.50;;;;;;;6.42;66.75;101364.84;105101;1270;99230;-79
2023/06/04 01:24:06;;;;;;;7.00;3.60;;;;;;;6.38;66.98;101361.86;105030;1269;98637;-79
2023/06/04 01:26:55;;;;;;;8.50;4.30;;;;;;;6.35;67.26;101363.17;105051;1267;97990;-78
2023/06/04 01:29:42;;;;;;;6.80;3.50;;;;;;;6.36;67.51;101366.61;104847;1265;98484;-79
2023/06/04 01:32:28;;;;;;;4.90;3.40;;;;;;;6.38;67.63;101371.55;105207;1270;111243;-80
2023/06/04 01:35:13;;;;;;;3.90;2.90;;;;;;;6.36;67.41;101367.18;105040;1270;99081;-80
2023/06/04 01:37:59;;;;;;;4.00;3.10;;;;;;;6.30;67.19;101369.11;104971;1267;98982;-79
2023/06/04 01:40:45;;;;;;;7.00;2.80;;;;;;;6.27;67.21;101367.09;105050;1267;97960;-79
2023/06/04 01:43:34;;;;;;;6.20;3.20;;;;;;;6.25;67.43;101366.06;105139;1267;97894;-79
2023/06/04 01:46:20;;;;;;;5.00;3.50;;;;;;;6.24;67.87;101366.15;105425;1267;103134;-77
2023/06/04 01:49:06;;;;;;;6.00;3.30;;;;;;;6.24;67.87;101364.88;104978;1267;99092;-80
2023/06/04 01:51:51;;;;;;;12.00;3.90;;;;;;;6.23;67.62;101363.00;105572;1265;98364;-79
2023/06/04 01:54:38;;;;;;;8.20;3.80;;;;;;;6.19;67.58;101367.11;105183;1270;98059;-79
2023/06/04 01:57:23;;;;;;;7.40;3.40;;;;;;;6.15;67.72;101364.83;104879;1270;98804;-79
2023/06/04 02:00:10;;;;;;;8.60;4.20;;;;;;;6.13;67.87;101367.48;104827;1270;103089;-78
2023/06/04 02:02:59;;;;;;;7.90;3.60;;;;;;;6.09;68.08;101368.90;104972;1266;99843;-79
2023/06/04 02:05:46;;;;;;;4.10;2.80;;;;;;;6.06;68.21;101372.41;104868;1267;99023;-78
2023/06/04 02:08:33;;;;;;;5.40;3.00;;;;;;;6.02;67.93;101373.30;104948;1267;97923;-80
2023/06/04 02:11:18;;;;;;;4.50;2.90;;;;;;;5.94;67.98;101368.91;105097;1269;98583;-78
2023/06/04 02:14:04;;;;;;;5.50;3.30;;;;;;;5.86;68.08;101367.51;104840;1267;102383;-79
2023/06/04 02:16:50;;;;;;;7.10;3.20;;;;;;;5.82;68.36;101370.16;104807;1266;100292;-78
2023/06/04 02:19:36;;;;;;;6.60;2.80;;;;;;;5.80;68.39;101374.90;105024;1267;97974;-79
2023/06/04 02:22:22;;;;;;;6.30;2.90;;;;;;;5.79;68.42;101370.44;105032;1269;97957;-79
2023/06/04 02:25:09;;;;;;;7.60;3.30;;;;;;;5.77;68.58;101372.87;105021;1267;97984;-79
2023/06/04 02:27:54;;;;;;;5.00;2.70;;;;;;;5.74;68.70;101374.37;105029;1266;101366;-80
2023/06/04 02:30:39;;;;;;;4.80;3.10;;;;;;;5.71;68.82;101373.98;105067;1267;99137;-79
2023/06/04 02:33:25;;;;;;;4.70;3.20;;;;;;;5.69;69.09;101372.39;104876;1265;97979;-78
2023/06/04 02:36:11;;;;;;;4.60;3.00;;;;;;;5.69;69.43;101372.25;105043;1267;97970;-79
2023/06/04 02:38:57;;;;;;;5.00;3.00;;;;;;;5.66;69.33;101371.64;105057;1267;98084;-79
2023/06/04 02:41:42;;;;;;;3.60;2.80;;;;;;;5.62;69.59;101371.99;105050;1266;102238;-78
2023/06/04 02:44:30;;;;;;;3.60;2.30;;;;;;;5.60;69.64;101370.71;105002;1266;99064;-79
2023/06/04 02:47:15;;;;;;;5.60;3.30;;;;;;;5.61;69.56;101372.35;105063;1266;97980;-78
2023/06/04 02:50:03;;;;;;;6.00;3.10;;;;;;;5.59;69.62;101372.42;105050;1270;97899;-79
2023/06/04 02:52:49;;;;;;;8.30;2.70;;;;;;;5.58;69.62;101369.98;105168;1269;99127;-79
2023/06/04 02:55:36;;;;;;;5.50;3.30;;;;;;;5.58;69.63;101365.40;105034;1266;102651;-80
2023/06/04 02:58:24;;;;;;;5.00;2.90;;;;;;;5.58;69.55;101362.98;104843;1270;100082;-77
2023/06/04 03:01:17;;;;;;;6.80;3.30;;;;;;;5.57;69.79;101362.86;105246;1270;99207;-79
2023/06/04 03:04:04;;;;;;;5.70;2.90;;;;;;;5.54;69.89;101361.90;107912;1264;95042;-80
2023/06/04 03:06:57;;;;;;;5.10;3.20;;;;;;;5.51;69.50;101362.65;105912;1269;97973;-79
2023/06/04 03:09:43;;;;;;;5.10;2.80;;;;;;;5.47;69.88;101362.64;104924;1270;101361;-79
2023/06/04 03:12:31;;;;;;;4.30;2.80;;;;;;;5.44;69.72;101364.01;105078;1266;99077;-80
2023/06/04 03:15:16;;;;;;;4.60;3.30;;;;;;;5.42;69.87;101361.84;105546;1268;99254;-79
2023/06/04 03:18:03;;;;;;;6.80;3.00;;;;;;;5.42;70.30;101358.85;105039;1264;97926;-79
2023/06/04 03:20:48;;;;;;;20.50;7.60;;;;;;;5.43;70.50;101359.60;104802;1267;98421;-79
2023/06/04 03:23:35;;;;;;;17.60;7.30;;;;;;;5.47;70.85;101361.38;104958;1266;101351;-80
2023/06/04 03:26:21;;;;;;;14.90;6.90;;;;;;;5.51;70.84;101358.59;104901;1268;99095;-79
2023/06/04 03:29:06;;;;;;;13.90;5.80;;;;;;;5.54;70.99;101362.73;107860;1265;97742;-80
2023/06/04 03:31:52;;;;;;;17.00;7.00;;;;;;;5.58;71.36;101369.63;105307;1265;98082;-80
2023/06/04 03:34:38;;;;;;;12.00;6.00;;;;;;;5.64;71.43;101371.39;104987;1267;98456;-80
2023/06/04 03:37:24;;;;;;;10.80;6.00;;;;;;;5.71;71.32;101370.76;105032;1269;102138;-79
2023/06/04 03:40:10;;;;;;;11.50;5.10;;;;;;;5.74;71.55;101373.52;105082;1280;99089;-78
2023/06/04 03:43:00;;;;;;;11.50;5.10;;;;;;;5.76;71.54;101375.80;105601;1269;97909;-79
2023/06/04 03:45:48;;;;;;;9.90;4.30;;;;;;;5.77;71.72;101379.80;105434;1269;98046;-79
2023/06/04 03:48:34;;;;;;;6.80;3.90;;;;;;;5.77;71.59;101382.63;105037;1271;98501;-81
2023/06/04 03:51:21;;;;;;;5.90;3.20;;;;;;;5.76;71.66;101381.34;105166;1263;102616;-80
2023/06/04 03:54:06;;;;;;;7.80;4.20;;;;;;;5.72;71.69;101381.16;105068;1266;100874;-80
2023/06/04 03:56:52;;;;;;;7.80;4.10;;;;;;;5.67;71.88;101381.55;105062;1268;98059;-79
2023/06/04 03:59:37;;;;;;;3.60;3.10;;;;;;;5.63;72.26;101387.27;105029;1266;97947;-80
2023/06/04 04:02:23;;;;;;;6.00;2.70;;;;;;;5.58;72.57;101386.48;104957;1266;97980;-77
2023/06/04 04:05:10;;;;;;;4.20;3.20;;;;;;;5.56;73.02;101390.18;104743;1268;101342;-78
2023/06/04 04:07:57;;;;;;;6.80;3.40;;;;;;;5.60;73.41;101386.09;105072;1269;100317;-78
2023/06/04 04:10:45;;;;;;;4.30;3.00;;;;;;;5.68;73.80;101382.23;104990;1267;97889;-78
2023/06/04 04:13:31;;;;;;;4.30;3.20;;;;;;;5.76;74.27;101380.84;105133;1266;97989;-78
2023/06/04 04:16:17;;;;;;;5.50;3.50;;;;;;;5.85;74.36;101377.16;105083;1265;97971;-78
2023/06/04 04:19:03;;;;;;;5.60;3.70;;;;;;;5.98;74.46;101376.52;105054;1270;101364;-77
2023/06/04 04:21:48;;;;;;;7.10;4.20;;;;;;;6.12;74.66;101381.20;104837;1264;99248;-78
2023/06/04 04:24:36;;;;;;;10.80;4.00;;;;;;;6.27;75.27;101377.73;105099;1265;98990;-79
2023/06/04 04:27:22;;;;;;;6.10;4.20;;;;;;;6.43;75.71;101377.87;104974;1266;98585;-78
2023/06/04 04:30:09;;;;;;;11.10;5.90;;;;;;;6.59;76.02;101373.15;105330;1269;99655;-79
2023/06/04 04:32:56;;;;;;;6.40;4.50;;;;;;;6.73;76.21;101367.34;105042;1265;103153;-78
2023/06/04 04:35:47;;;;;;;7.40;4.70;;;;;;;6.86;76.13;101364.35;104897;1265;100528;-78
2023/06/04 04:38:35;;;;;;;6.90;4.10;;;;;;;7.00;76.24;101363.55;105190;1268;97887;-80
2023/06/04 04:41:22;;;;;;;7.40;4.20;;;;;;;7.14;76.28;101361.70;104990;1270;98525;-79
2023/06/04 04:44:08;;;;;;;6.10;3.70;;;;;;;7.28;76.89;101364.95;104986;1270;97881;-79
2023/06/04 04:46:53;;;;;;;7.60;3.90;;;;;;;7.40;77.29;101366.59;105094;1268;101366;-78
2023/06/04 04:49:39;;;;;;;11.50;5.20;;;;;;;7.53;77.08;101371.61;105171;1266;99150;-79
2023/06/04 04:52:25;;;;;;;6.40;4.60;;;;;;;7.65;76.81;101369.45;104916;1270;98036;-78
2023/06/04 04:55:11;;;;;;;5.20;3.90;;;;;;;7.81;76.69;101370.06;104950;1270;97983;-79
2023/06/04 04:57:57;;;;;;;8.10;4.50;;;;;;;7.95;76.65;101368.25;104889;1270;98466;-78
2023/06/04 05:00:44;;;;;;;10.30;5.10;;;;;;;8.09;77.15;101366.13;104957;1270;101362;-80
2023/06/04 05:03:29;;;;;;;7.30;4.50;;;;;;;8.23;76.90;101361.17;104981;1271;99235;-80
2023/06/04 05:06:15;;;;;;;7.70;4.60;;;;;;;8.39;76.78;101360.53;105161;1270;97930;-80
2023/06/04 05:09:01;;;;;;;10.60;5.40;;;;;;;8.54;76.65;101361.67;105257;1268;97935;-79
2023/06/04 05:11:48;;;;;;;7.30;4.50;;;;;;;8.70;76.78;101359.80;105298;1266;98488;-79
2023/06/04 05:14:37;;;;;;;6.90;5.10;;;;;;;8.87;76.57;101353.98;105613;1266;102617;-78
2023/06/04 05:17:29;;;;;;;8.70;4.80;;;;;;;9.06;76.56;101358.39;105262;1266;99171;-80
2023/06/04 05:20:16;;;;;;;6.60;4.60;;;;;;;9.25;76.33;101358.16;105033;1267;99019;-79
2023/06/04 05:23:03;;;;;;;8.00;4.50;;;;;;;9.44;76.67;101358.83;105672;1267;98066;-80
2023/06/04 05:25:50;;;;;;;7.30;4.80;;;;;;;9.64;76.80;101360.63;105675;1265;98244;-79
2023/06/04 05:28:36;;;;;;;9.40;4.80;;;;;;;9.83;76.43;101363.67;105379;1268;102146;-80
2023/06/04 05:31:26;;;;;;;9.00;4.80;;;;;;;10.03;76.40;101363.55;105358;1268;99090;-79
2023/06/04 05:34:16;;;;;;;6.70;4.60;;;;;;;10.24;76.47;101361.64;105046;1270;97987;-79
2023/06/04 05:37:03;;;;;;;5.50;4.20;;;;;;;10.46;75.74;101361.71;105262;1267;97970;-79
2023/06/04 05:39:50;;;;;;;6.00;3.70;;;;;;;10.68;74.83;101358.45;105769;1268;99584;-80
2023/06/04 05:42:37;;;;;;;7.80;3.60;;;;;;;10.93;73.97;101359.24;105769;1268;101395;-81
2023/06/04 05:45:23;;;;;;;5.30;3.70;;;;;;;11.17;72.84;101361.17;105527;1266;100402;-79
2023/06/04 05:48:09;;;;;;;5.10;3.50;;;;;;;11.39;71.52;101361.88;105533;1267;98462;-79
2023/06/04 05:50:55;;;;;;;10.30;3.80;;;;;;;11.60;71.05;101361.48;105474;1267;98035;-79
2023/06/04 05:53:42;;;;;;;5.20;3.60;;;;;;;11.78;70.48;101359.95;105614;1268;98082;-80
2023/06/04 05:56:27;;;;;;;5.60;3.00;;;;;;;11.97;69.79;101355.23;105662;1265;101352;-79
2023/06/04 05:59:14;;;;;;;5.90;2.70;;;;;;;12.15;68.72;101349.52;105499;1268;99237;-80
2023/06/04 06:02:00;;;;;;;6.00;3.20;;;;;;;12.34;68.29;101350.04;105618;1266;99126;-79
2023/06/04 06:04:46;;;;;;;7.30;3.10;;;;;;;12.55;68.05;101355.34;105659;1266;97964;-79
2023/06/04 06:07:32;;;;;;;4.50;2.40;;;;;;;12.74;67.80;101355.04;105490;1265;98408;-80
2023/06/04 06:10:17;;;;;;;3.30;2.30;;;;;;;12.94;67.16;101358.11;105507;1265;102010;-80
2023/06/04 06:13:03;;;;;;;9.10;2.80;;;;;;;13.15;65.78;101363.66;105206;1265;99074;-79
2023/06/04 06:15:49;;;;;;;3.40;1.70;;;;;;;13.34;65.98;101365.53;105680;1266;98926;-80
2023/06/04 06:18:35;;;;;;;4.10;1.80;;;;;;;13.51;64.59;101371.64;105599;1265;97756;-82
2023/06/04 06:21:20;;;;;;;4.50;2.00;;;;;;;13.66;62.97;101370.23;105781;1266;98488;-81
2023/06/04 06:24:06;;;;;;;2.70;1.60;;;;;;;13.82;62.17;101373.08;105662;1266;101354;-80
2023/06/04 06:26:53;;;;;;;7.50;5.60;;;;;;;13.98;61.96;101376.75;106124;1265;99863;-81
2023/06/04 06:29:39;;;;;;;4.50;2.60;;;;;;;14.15;61.23;101378.35;105597;1266;98022;-81
2023/06/04 06:32:25;;;;;;;4.60;1.60;;;;;;;14.30;60.68;101384.14;105656;1270;99298;-80
2023/06/04 06:35:10;;;;;;;5.40;1.40;;;;;;;14.46;60.03;101385.59;105766;1266;98456;-81
2023/06/04 06:37:56;;;;;;;5.70;1.90;;;;;;;14.59;59.51;101382.35;105603;1265;102435;-80
2023/06/04 06:40:41;;;;;;;5.40;1.50;;;;;;;14.75;59.75;101376.65;105752;1266;99075;-81
2023/06/04 06:43:27;;;;;;;2.80;1.40;;;;;;;14.90;59.00;101377.02;105723;1268;97970;-81
2023/06/04 06:46:12;;;;;;;1.50;1.30;;;;;;;15.04;57.94;101373.45;105527;1266;98187;-78
2023/06/04 06:48:58;;;;;;;4.50;1.10;;;;;;;15.17;57.26;101376.21;104958;1268;97915;-79
2023/06/04 06:51:43;;;;;;;3.10;1.30;;;;;;;15.29;57.67;101374.79;104811;1270;101355;-78
2023/06/04 06:54:28;;;;;;;3.30;1.30;;;;;;;15.41;57.00;101380.43;105047;1264;100376;-79
2023/06/04 06:57:15;;;;;;;3.10;1.30;;;;;;;15.51;55.59;101381.84;104979;1266;97942;-77
2023/06/04 07:00:00;;;;;;;3.10;1.50;;;;;;;15.61;55.44;101383.92;105017;1266;97793;-78
2023/06/04 07:02:46;;;;;;;2.20;1.10;;;;;;;15.73;55.40;101381.95;104947;1267;99642;-79
2023/06/04 07:05:32;;;;;;;4.30;1.40;;;;;;;15.85;54.90;101380.38;105008;1268;101490;-78
2023/06/04 07:08:17;;;;;;;1.90;1.20;;;;;;;15.93;54.54;101379.48;104908;1269;100377;-78
2023/06/04 07:11:03;;;;;;;5.80;1.30;;;;;;;16.03;54.14;101379.73;104889;1266;99016;-78
2023/06/04 07:13:49;;;;;;;4.30;1.00;;;;;;;16.17;54.09;101382.89;104863;1268;97973;-77
2023/06/04 07:16:35;;;;;;;5.20;0.90;;;;;;;16.29;53.54;101381.80;104687;1268;98174;-77
2023/06/04 07:19:20;;;;;;;3.60;0.90;;;;;;;16.40;51.92;101382.94;104679;1268;101434;-77
2023/06/04 07:22:06;;;;;;;3.50;1.00;;;;;;;16.49;51.88;101383.88;104672;1268;99156;-78
2023/06/04 07:24:52;;;;;;;2.60;0.80;;;;;;;16.56;50.84;101387.69;104633;1267;97962;-76
2023/06/04 07:27:38;;;;;;;1.30;0.60;;;;;;;16.62;49.65;101384.90;105696;1264;97973;-85
2023/06/04 07:30:24;;;;;;;1.40;0.80;;;;;;;16.68;49.01;101383.33;105527;1270;97967;-82
2023/06/04 07:33:10;;;;;;;2.10;0.80;;;;;;;16.77;48.99;101386.66;105680;1268;101329;-84
2023/06/04 07:35:56;;;;;;;2.40;0.90;;;;;;;16.85;49.14;101379.88;105588;1268;100688;-82
2023/06/04 07:38:41;;;;;;;0.90;0.50;;;;;;;16.94;49.43;101376.13;105451;1266;99039;-85
2023/06/04 07:41:27;;;;;;;3.40;1.00;;;;;;;17.03;48.40;101377.37;105379;1266;97999;-84
2023/06/04 07:44:13;;;;;;;3.40;1.00;;;;;;;17.11;47.97;101376.57;105471;1266;98601;-83
2023/06/04 07:46:59;;;;;;;3.70;1.00;;;;;;;17.20;46.66;101375.31;105481;1266;101421;-84
2023/06/04 07:49:45;;;;;;;3.10;1.30;;;;;;;17.28;46.20;101380.00;105407;1268;99825;-85
2023/06/04 07:52:30;;;;;;;1.50;0.80;;;;;;;17.34;45.32;101375.52;105391;1271;98588;-83
2023/06/04 07:55:16;;;;;;;1.00;0.70;;;;;;;17.38;45.16;101379.68;105585;1266;98024;-81
2023/06/04 07:58:01;;;;;;;1.80;0.90;;;;;;;17.46;44.95;101382.70;105500;1264;97858;-85
2023/06/04 08:00:47;;;;;;;3.30;1.10;;;;;;;17.51;44.04;101382.88;105609;1266;101347;-83
2023/06/04 08:03:33;;;;;;;4.80;0.70;;;;;;;17.55;43.87;101381.59;105304;1270;99165;-84
2023/06/04 08:06:19;;;;;;;2.70;0.90;;;;;;;17.65;44.11;101379.30;105424;1267;98213;-85
2023/06/04 08:09:05;;;;;;;3.30;0.90;;;;;;;17.75;43.71;101380.80;105392;1273;98063;-85
2023/06/04 08:11:51;;;;;;;1.60;1.20;;;;;;;17.86;43.74;101379.92;105360;1273;97906;-84
2023/06/04 08:14:36;;;;;;;1.60;0.70;;;;;;;17.97;43.51;101378.58;105573;1273;101449;-81
2023/06/04 08:17:22;;;;;;;1.50;1.00;;;;;;;18.07;43.54;101381.28;105651;1266;99195;-80
2023/06/04 08:20:08;;;;;;;0.80;0.50;;;;;;;18.10;42.75;101379.67;105610;1265;98723;-82
2023/06/04 08:22:54;;;;;;;2.80;0.80;;;;;;;18.10;42.59;101377.52;105516;1265;97891;-82
2023/06/04 08:25:39;;;;;;;1.20;0.80;;;;;;;18.16;42.64;101371.09;105431;1264;98128;-80
2023/06/04 08:28:24;;;;;;;4.90;1.00;;;;;;;18.21;43.23;101368.60;105600;1269;101462;-80
2023/06/04 08:31:10;;;;;;;3.10;0.90;;;;;;;18.28;42.86;101367.75;106019;1269;99964;-82
2023/06/04 08:33:55;;;;;;;1.30;0.60;;;;;;;18.29;41.37;101366.48;105565;1266;98957;-80
2023/06/04 08:36:41;;;;;;;2.70;0.90;;;;;;;18.26;40.83;101360.23;105760;1264;98048;-78
2023/06/04 08:39:26;;;;;;;4.00;0.90;;;;;;;18.28;40.83;101352.58;105123;1266;97920;-79
2023/06/04 08:42:27;;;;;;;4.30;1.20;;;;;;;18.31;40.53;101352.14;104874;1267;102664;-78
2023/06/04 08:45:15;;;;;;;2.30;0.60;;;;;;;18.35;40.95;101353.53;105113;1266;99097;-78
2023/06/04 08:48:00;;;;;;;1.50;0.90;;;;;;;18.46;41.51;101351.42;105040;1269;98998;-79
2023/06/04 08:50:48;;;;;;;2.70;0.80;;;;;;;18.57;41.14;101349.84;105173;1268;97982;-80
2023/06/04 08:53:33;;;;;;;2.80;0.70;;;;;;;18.67;41.51;101351.06;105734;1265;97925;-79
2023/06/04 08:56:20;;;;;;;1.30;0.90;;;;;;;18.71;40.64;101351.36;105623;1268;102096;-80
2023/06/04 08:59:10;;;;;;;2.60;1.30;;;;;;;18.73;40.52;101354.85;105142;1268;99203;-80
2023/06/04 09:01:58;;;;;;;2.50;0.80;;;;;;;18.78;40.19;101347.95;105198;1268;99314;-81
2023/06/04 09:04:45;;;;;;;2.20;0.90;;;;;;;18.88;41.50;101346.36;105474;1268;98059;-81
2023/06/04 09:07:31;;;;;;;1.80;0.80;;;;;;;19.02;40.74;101354.17;105697;1268;95972;-82
2023/06/04 09:10:21;;;;;;;3.80;0.80;;;;;;;19.10;40.47;101352.41;105652;1264;101367;-83
2023/06/04 09:13:09;;;;;;;3.40;0.90;;;;;;;19.12;39.37;101349.10;105658;1266;99131;-85
2023/06/04 09:16:07;;;;;;;1.80;0.80;;;;;;;19.13;39.83;101350.18;105401;1267;97986;-82
2023/06/04 09:18:53;;;;;;;1.00;0.70;;;;;;;19.17;40.06;101350.40;105810;1266;97956;-79
2023/06/04 09:21:50;;;;;;;1.30;0.50;;;;;;;19.19;39.19;101346.48;104826;1268;98075;-82
2023/06/04 09:24:42;;;;;;;3.30;1.00;;;;;;;19.18;39.31;101344.23;105468;1268;101362;-86
2023/06/04 09:27:38;;;;;;;1.40;0.90;;;;;;;19.23;40.16;101343.97;105458;1265;100135;-82
2023/06/04 09:30:25;;;;;;;1.50;1.00;;;;;;;19.37;40.20;101346.52;105546;1264;99066;-83
2023/06/04 09:33:12;;;;;;;2.10;0.60;;;;;;;19.51;39.56;101343.35;105838;1266;97986;-83
2023/06/04 09:35:57;;;;;;;1.20;0.70;;;;;;;19.56;38.45;101339.11;106051;1265;97923;-84
2023/06/04 09:38:43;;;;;;;1.80;1.10;;;;;;;19.54;38.30;101339.43;106258;1268;102083;-82
2023/06/04 09:41:32;;;;;;;0.80;0.70;;;;;;;19.62;38.89;101339.21;105842;1266;99323;-82
2023/06/04 09:44:17;;;;;;;1.50;0.70;;;;;;;19.69;38.36;101341.00;106411;1266;99153;-84
2023/06/04 09:47:03;;;;;;;1.70;0.70;;;;;;;19.71;37.96;101333.62;105816;1268;97887;-83
2023/06/04 09:49:50;;;;;;;1.50;0.80;;;;;;;19.73;37.37;101330.41;105633;1268;98052;-81
2023/06/04 09:52:37;;;;;;;1.30;0.60;;;;;;;19.81;37.76;101329.76;105369;1266;101380;-83
2023/06/04 09:55:23;;;;;;;8.30;1.40;;;;;;;19.85;36.76;101325.11;105417;1265;99089;-83
2023/06/04 09:58:12;;;;;;;1.00;0.80;;;;;;;19.87;37.28;101320.60;105572;1267;97897;-82
2023/06/04 10:01:00;;;;;;;2.00;0.70;;;;;;;19.91;37.66;101323.64;105374;1266;99353;-83
2023/06/04 10:03:51;;;;;;;3.80;0.80;;;;;;;20.03;38.23;101321.77;105521;1268;98501;-84
2023/06/04 10:06:39;;;;;;;4.90;0.80;;;;;;;20.14;38.04;101316.79;105438;1266;103370;-82
2023/06/04 10:09:26;;;;;;;3.30;0.70;;;;;;;20.26;37.58;101318.30;105413;1266;99185;-82
2023/06/04 10:12:16;;;;;;;2.90;1.10;;;;;;;20.36;37.22;101314.80;105651;1268;97969;-80
2023/06/04 10:15:05;;;;;;;3.00;0.80;;;;;;;20.39;36.90;101311.45;105644;1264;97955;-81
2023/06/04 10:17:54;;;;;;;2.40;1.10;;;;;;;20.40;36.60;101314.20;105675;1266;97881;-82
2023/06/04 10:20:41;;;;;;;3.20;0.90;;;;;;;20.46;37.48;101313.80;105724;1266;101866;-82
2023/06/04 10:23:27;;;;;;;2.00;0.80;;;;;;;20.46;36.79;101312.46;105599;1266;99095;-82
2023/06/04 10:26:14;;;;;;;5.70;1.00;;;;;;;20.40;36.13;101311.59;105666;1268;106458;-83
2023/06/04 10:29:02;;;;;;;3.90;1.00;;;;;;;20.36;36.45;101314.80;105655;1268;98069;-82
2023/06/04 10:31:47;;;;;;;1.80;0.90;;;;;;;20.37;37.06;101314.17;105742;1268;98472;-81
2023/06/04 10:34:34;;;;;;;2.50;0.80;;;;;;;20.43;36.32;101313.30;105563;1268;101483;-82
2023/06/04 10:37:21;;;;;;;2.00;1.40;;;;;;;20.51;36.23;101311.00;105645;1266;99177;-82
2023/06/04 10:40:08;;;;;;;3.20;1.10;;;;;;;20.55;36.07;101313.06;105613;1265;98299;-83
2023/06/04 10:42:53;;;;;;;2.70;0.70;;;;;;;20.55;35.36;101306.02;105529;1266;97996;-82
2023/06/04 10:45:40;;;;;;;3.40;0.80;;;;;;;20.55;36.04;101297.91;105487;1271;97956;-82
2023/06/04 10:48:26;;;;;;;2.10;0.50;;;;;;;20.62;36.74;101297.83;105671;1265;101174;-82
2023/06/04 10:51:11;;;;;;;3.10;0.90;;;;;;;20.72;36.03;101297.90;105626;1267;100077;-82
2023/06/04 10:54:01;;;;;;;1.00;0.70;;;;;;;20.86;35.23;101300.01;105627;1265;98512;-82
2023/06/04 10:56:47;;;;;;;4.00;0.80;;;;;;;20.93;35.43;101295.55;105719;1265;97892;-84
2023/06/04 10:59:32;;;;;;;0.90;0.70;;;;;;;21.03;35.36;101297.05;105743;1266;98383;-84
2023/06/04 11:02:18;;;;;;;2.60;0.90;;;;;;;21.11;35.36;101296.63;105739;1268;101325;-81
2023/06/04 11:05:08;;;;;;;1.00;0.60;;;;;;;21.16;35.79;101293.09;105643;1268;100363;-82
2023/06/04 11:07:53;;;;;;;3.00;0.70;;;;;;;21.27;35.23;101296.06;105576;1265;98043;-81
2023/06/04 11:10:41;;;;;;;1.40;0.70;;;;;;;21.36;34.88;101298.82;105498;1270;98075;-82
2023/06/04 11:13:27;;;;;;;1.00;0.70;;;;;;;21.45;34.19;101299.07;105621;1266;98495;-82
2023/06/04 11:16:19;;;;;;;2.50;0.80;;;;;;;21.51;33.95;101299.67;105732;1265;101336;-83
2023/06/04 11:19:05;;;;;;;1.10;0.70;;;;;;;21.45;32.98;101300.37;105631;1265;99202;-82
2023/06/04 11:21:51;;;;;;;1.20;0.80;;;;;;;21.33;32.61;101298.58;105556;1266;97895;-83
2023/06/04 11:24:36;;;;;;;1.80;0.80;;;;;;;21.24;32.80;101294.95;105541;1269;97964;-82
2023/06/04 11:27:22;;;;;;;1.30;0.80;;;;;;;21.19;33.41;101292.25;105623;1266;97976;-82
2023/06/04 11:30:08;;;;;;;1.20;0.70;;;;;;;21.19;33.14;101290.01;105365;1266;293627;-83
2023/06/04 11:33:01;;;;;;;2.80;0.60;;;;;;;21.23;33.93;101289.34;105576;1270;100344;-82
2023/06/04 11:35:46;;;;;;;1.90;0.50;;;;;;;21.33;33.78;101286.70;105666;1266;99076;-82
2023/06/04 11:38:32;;;;;;;2.70;0.90;;;;;;;21.49;33.85;101292.66;105656;1268;97986;-82
2023/06/04 11:41:18;;;;;;;1.10;0.60;;;;;;;21.65;34.04;101288.84;105588;1265;98404;-82
2023/06/04 11:44:05;;;;;;;1.00;0.70;;;;;;;21.77;33.55;101288.84;105464;1265;101348;-82
2023/06/04 11:46:53;;;;;;;2.00;0.70;;;;;;;21.81;33.16;101288.45;105617;1265;99276;-83
2023/06/04 11:49:39;;;;;;;1.40;0.50;;;;;;;21.88;33.18;101286.23;105612;1268;98474;-83
2023/06/04 11:52:25;;;;;;;2.00;0.70;;;;;;;21.97;33.23;101290.30;105719;1265;98049;-82
2023/06/04 11:55:12;;;;;;;2.40;0.70;;;;;;;22.00;32.19;101288.40;105764;1266;97866;-82
2023/06/04 11:57:58;;;;;;;4.10;0.70;;;;;;;21.95;32.34;101286.95;105797;1266;102591;-83
2023/06/04 12:00:43;;;;;;;1.80;0.60;;;;;;;21.99;32.43;101290.09;105590;1266;99151;-82
2023/06/04 12:03:40;;;;;;;1.70;0.80;;;;;;;22.05;31.98;101287.34;105655;1266;98409;-82
2023/06/04 12:06:26;;;;;;;1.70;0.60;;;;;;;22.05;32.24;101283.95;105630;1266;97962;-82
2023/06/04 12:09:20;;;;;;;2.80;0.70;;;;;;;22.07;32.52;101281.55;105671;1266;97813;-82
2023/06/04 12:12:07;;;;;;;1.80;0.70;;;;;;;22.16;32.54;101284.33;105524;1266;101344;-83
2023/06/04 12:14:59;;;;;;;3.60;1.00;;;;;;;22.18;31.57;101287.21;105492;1266;99098;-83
2023/06/04 12:17:52;;;;;;;1.50;0.60;;;;;;;22.12;31.67;101286.60;105579;1266;98808;-82
2023/06/04 12:20:43;;;;;;;1.10;0.50;;;;;;;22.09;31.61;101286.72;105758;1270;98040;-82
2023/06/04 12:26:45;;;;;;;1.40;0.80;;;;;;;22.06;32.59;101284.80;105613;1271;101318;-83
2023/06/04 12:29:31;;;;;;;2.60;0.80;;;;;;;22.17;32.63;101285.31;105433;1270;100185;-82
2023/06/04 12:32:17;;;;;;;3.40;0.90;;;;;;;22.28;31.56;101283.05;105329;1269;98982;-83
2023/06/04 12:35:02;;;;;;;2.70;0.60;;;;;;;22.24;31.70;101281.09;106412;1262;99179;-84
2023/06/04 12:41:12;;;;;;;1.80;0.70;;;;;;;22.33;31.33;101282.14;105269;1270;101337;-82
2023/06/04 12:43:58;;;;;;;2.10;0.70;;;;;;;22.45;31.81;101280.16;105075;1273;99107;-82
2023/06/04 12:46:43;;;;;;;1.10;0.60;;;;;;;22.61;31.59;101279.42;105275;1270;97862;-81
2023/06/04 12:49:31;;;;;;;0.70;0.50;;;;;;;22.65;30.98;101282.15;105308;1270;97907;-84
2023/06/04 12:52:17;;;;;;;4.40;0.70;;;;;;;22.64;31.46;101282.52;105019;1270;97950;-83
2023/06/04 12:55:03;;;;;;;1.40;0.50;;;;;;;22.73;31.75;101283.48;105081;1277;101358;-84